Time;durP1;ratioP1;P1;durP2;ratioP2;P2;SDS_P1;SDS_P2;PMS_P1;PMS_P2;Temp;Humidity;BMP_temperature;BMP_pressure;BME280_temperature;BME280_humidity;BME280_pressure;Samples;Min_cycle;Max_cycle;Signal;HPM_P1;HPM_P2
2023/09/19 00:00:42;;;;;;;13.52;5.45;;;24.40;96.70;;;;;;5104438;28;20043;-78
2023/09/19 00:03:11;;;;;;;17.00;5.28;;;24.40;96.70;;;;;;5104119;28;20147;-77
2023/09/19 00:05:44;;;;;;;12.57;5.63;;;24.40;96.70;;;;;;5083324;28;20040;-77
2023/09/19 00:08:13;;;;;;;9.07;4.80;;;24.40;96.70;;;;;;5103807;28;20130;-78
2023/09/19 00:10:43;;;;;;;9.52;4.90;;;24.50;96.70;;;;;;5103906;28;20059;-77
2023/09/19 00:13:14;;;;;;;16.70;5.43;;;24.40;96.70;;;;;;5108251;28;20047;-77
2023/09/19 00:15:48;;;;;;;13.20;5.07;;;24.40;96.70;;;;;;5108407;28;20044;-77
2023/09/19 00:18:18;;;;;;;11.10;5.15;;;24.40;96.70;;;;;;5089173;28;20047;-76
2023/09/19 00:20:47;;;;;;;12.82;5.60;;;24.40;96.70;;;;;;5089486;28;20101;-77
2023/09/19 00:23:15;;;;;;;15.77;5.70;;;24.30;96.70;;;;;;5104785;28;20047;-76
2023/09/19 00:25:43;;;;;;;15.93;5.20;;;24.30;96.70;;;;;;5090081;28;20093;-76
2023/09/19 00:28:11;;;;;;;13.57;5.22;;;24.30;96.70;;;;;;5108846;28;20093;-78
2023/09/19 00:30:42;;;;;;;12.75;5.00;;;24.30;96.70;;;;;;5090080;28;20467;-76
2023/09/19 00:33:16;;;;;;;13.00;5.75;;;24.40;96.70;;;;;;5089401;28;20138;-76
2023/09/19 00:35:48;;;;;;;10.55;5.50;;;24.40;96.70;;;;;;5100430;28;20465;-77
2023/09/19 00:38:16;;;;;;;13.88;5.20;;;24.50;96.70;;;;;;5072378;28;20181;-77
2023/09/19 00:40:45;;;;;;;17.85;5.30;;;24.50;96.70;;;;;;5088986;28;20052;-77
2023/09/19 00:43:13;;;;;;;8.55;5.10;;;24.50;96.70;;;;;;5107082;28;20100;-78
2023/09/19 00:45:45;;;;;;;17.33;5.70;;;24.50;96.70;;;;;;5086806;28;20071;-77
2023/09/19 00:48:15;;;;;;;15.30;5.30;;;24.50;96.70;;;;;;5089192;28;20051;-77
2023/09/19 00:50:44;;;;;;;17.02;5.20;;;24.40;96.70;;;;;;5107006;28;20039;-77
2023/09/19 00:53:14;;;;;;;9.75;5.25;;;24.30;96.70;;;;;;5089278;28;20131;-76
2023/09/19 00:55:42;;;;;;;12.68;5.35;;;24.30;96.70;;;;;;5069499;28;20048;-76
2023/09/19 00:58:11;;;;;;;13.13;4.45;;;24.40;96.70;;;;;;5088883;28;20100;-77
2023/09/19 01:00:40;;;;;;;13.48;5.22;;;24.50;96.70;;;;;;5081404;28;20951;-77
2023/09/19 01:03:09;;;;;;;11.73;5.55;;;24.50;96.70;;;;;;5088892;28;20054;-77
2023/09/19 01:05:39;;;;;;;11.85;5.30;;;24.40;96.70;;;;;;5107228;28;20076;-77
2023/09/19 01:08:07;;;;;;;10.00;4.75;;;24.40;96.70;;;;;;5071455;28;20089;-77
2023/09/19 01:10:38;;;;;;;12.68;5.47;;;24.40;96.70;;;;;;5106447;28;20089;-76
2023/09/19 01:13:14;;;;;;;11.38;5.38;;;24.50;96.70;;;;;;5085884;28;20054;-77
2023/09/19 01:15:53;;;;;;;11.95;4.38;;;24.50;96.70;;;;;;5072080;28;20050;-77
2023/09/19 01:18:30;;;;;;;12.25;4.93;;;24.40;96.70;;;;;;5068610;28;20071;-76
2023/09/19 01:21:11;;;;;;;11.07;5.30;;;24.40;96.70;;;;;;5088988;28;20054;-77
2023/09/19 01:24:16;;;;;;;14.05;4.88;;;24.30;96.70;;;;;;5089256;28;20522;-77
2023/09/19 01:27:07;;;;;;;13.75;5.03;;;24.20;96.70;;;;;;5037364;28;20421;-77
2023/09/19 01:29:39;;;;;;;10.00;5.38;;;24.10;96.70;;;;;;5106603;28;20494;-77
2023/09/19 01:32:09;;;;;;;12.60;4.82;;;24.10;96.70;;;;;;5088879;28;20054;-78
2023/09/19 01:34:47;;;;;;;13.15;5.38;;;24.10;96.70;;;;;;5087136;28;20045;-78
2023/09/19 01:37:19;;;;;;;11.82;4.97;;;24.00;96.70;;;;;;5071574;28;20585;-77
2023/09/19 01:39:51;;;;;;;10.27;5.18;;;24.10;96.70;;;;;;5075442;28;20456;-78
2023/09/19 01:42:30;;;;;;;10.98;4.97;;;24.30;96.70;;;;;;5056351;28;20508;-77
2023/09/19 01:45:07;;;;;;;15.63;4.95;;;24.30;96.70;;;;;;5071272;28;20075;-78
2023/09/19 01:47:43;;;;;;;11.35;4.25;;;24.30;96.70;;;;;;5087650;28;20082;-78
2023/09/19 01:50:18;;;;;;;12.93;4.68;;;24.20;96.70;;;;;;5083881;28;20052;-78
2023/09/19 01:52:54;;;;;;;14.35;5.40;;;24.20;96.70;;;;;;5121997;27;20125;-78
2023/09/19 01:55:24;;;;;;;10.57;5.60;;;24.10;96.70;;;;;;5089833;28;20051;-77
2023/09/19 01:58:01;;;;;;;14.95;5.22;;;24.10;96.70;;;;;;5088004;28;20075;-78
2023/09/19 02:00:32;;;;;;;11.57;5.32;;;24.00;96.70;;;;;;5088099;27;20055;-77
2023/09/19 02:03:03;;;;;;;13.48;4.85;;;24.00;96.70;;;;;;5095462;28;20092;-77
2023/09/19 02:05:33;;;;;;;13.40;5.60;;;24.00;96.70;;;;;;5070634;28;20055;-78
2023/09/19 02:08:01;;;;;;;14.98;4.95;;;23.90;96.70;;;;;;5087338;28;20090;-78
2023/09/19 02:10:29;;;;;;;11.70;4.78;;;23.80;96.70;;;;;;5070937;28;20130;-77
2023/09/19 02:12:59;;;;;;;11.73;4.85;;;23.80;96.70;;;;;;5067681;28;20044;-78
2023/09/19 02:15:27;;;;;;;14.45;5.07;;;23.80;96.70;;;;;;5078485;28;20135;-77
2023/09/19 02:17:56;;;;;;;11.07;4.72;;;23.90;96.70;;;;;;5070427;28;20074;-77
2023/09/19 02:20:26;;;;;;;13.80;6.05;;;23.80;96.70;;;;;;5071287;28;20048;-78
2023/09/19 02:22:54;;;;;;;14.85;4.28;;;23.90;96.70;;;;;;5103352;28;20028;-77
2023/09/19 02:25:22;;;;;;;15.95;5.22;;;23.90;96.70;;;;;;5088158;28;20163;-78
2023/09/19 02:27:51;;;;;;;15.95;5.20;;;24.00;96.70;;;;;;5088095;28;20138;-77
2023/09/19 02:30:23;;;;;;;12.50;4.80;;;24.00;96.70;;;;;;5071076;28;20052;-77
2023/09/19 02:32:50;;;;;;;12.85;4.50;;;24.00;96.70;;;;;;5105227;28;20122;-78
2023/09/19 02:35:22;;;;;;;10.27;4.30;;;24.10;96.70;;;;;;5087546;28;20047;-78
2023/09/19 02:37:51;;;;;;;13.57;4.47;;;24.00;96.70;;;;;;5105231;28;20065;-77
2023/09/19 02:40:20;;;;;;;18.92;4.38;;;24.00;96.70;;;;;;5105529;28;20122;-78
2023/09/19 02:42:49;;;;;;;14.40;4.15;;;24.00;96.70;;;;;;5102489;28;20043;-79
2023/09/19 02:45:18;;;;;;;12.93;4.40;;;23.90;96.70;;;;;;5085188;28;20052;-77
2023/09/19 02:47:46;;;;;;;18.15;4.90;;;24.00;96.70;;;;;;5069778;28;20035;-77
2023/09/19 02:50:18;;;;;;;11.75;4.60;;;24.00;96.70;;;;;;5068873;28;20040;-77
2023/09/19 02:52:51;;;;;;;9.80;4.70;;;24.00;96.70;;;;;;5092625;28;20044;-77
2023/09/19 02:55:21;;;;;;;9.93;4.32;;;24.00;96.70;;;;;;5090330;28;20135;-77
2023/09/19 02:57:51;;;;;;;11.13;4.78;;;24.00;96.70;;;;;;5071641;28;20067;-78
2023/09/19 03:00:21;;;;;;;10.18;4.80;;;24.00;96.70;;;;;;5086798;28;20503;-77
2023/09/19 03:02:49;;;;;;;10.07;4.53;;;24.00;96.70;;;;;;5104773;28;20047;-77
2023/09/19 03:05:18;;;;;;;13.98;4.97;;;24.00;96.70;;;;;;5067386;28;20201;-77
2023/09/19 03:07:50;;;;;;;12.93;5.40;;;24.00;96.70;;;;;;5085689;28;20048;-77
2023/09/19 03:10:21;;;;;;;12.18;4.38;;;24.00;96.70;;;;;;5079091;28;20501;-77
2023/09/19 03:12:50;;;;;;;10.98;4.82;;;23.90;96.70;;;;;;5087147;28;20073;-78
2023/09/19 03:15:20;;;;;;;14.77;5.07;;;24.00;96.70;;;;;;5070451;28;20043;-78
2023/09/19 03:17:53;;;;;;;11.73;5.03;;;24.00;96.70;;;;;;5075629;28;20051;-77
2023/09/19 03:20:23;;;;;;;11.50;4.85;;;24.00;96.70;;;;;;5091504;28;20051;-77
2023/09/19 03:22:52;;;;;;;11.27;4.93;;;23.90;96.70;;;;;;5086055;28;20067;-78
2023/09/19 03:25:24;;;;;;;13.35;5.35;;;23.80;96.70;;;;;;5091222;28;20043;-77
2023/09/19 03:27:53;;;;;;;12.30;4.38;;;23.80;96.70;;;;;;5070087;28;20043;-77
2023/09/19 03:30:23;;;;;;;12.07;4.63;;;23.80;96.70;;;;;;5085901;28;20063;-77
2023/09/19 03:32:51;;;;;;;8.70;4.65;;;23.80;96.70;;;;;;5085533;28;20047;-77
2023/09/19 03:35:20;;;;;;;11.52;5.03;;;23.70;96.70;;;;;;5085579;28;20055;-77
2023/09/19 03:37:48;;;;;;;8.35;4.00;;;23.70;96.70;;;;;;5104440;28;20051;-77
2023/09/19 03:40:20;;;;;;;9.73;4.75;;;23.70;96.70;;;;;;5103506;28;20385;-77
2023/09/19 03:42:50;;;;;;;9.73;5.10;;;23.70;96.70;;;;;;5085439;28;20505;-77
2023/09/19 03:45:19;;;;;;;9.80;5.00;;;23.70;96.70;;;;;;5085795;28;20079;-79
2023/09/19 03:47:50;;;;;;;12.30;5.03;;;23.60;96.70;;;;;;5090553;28;20070;-77
2023/09/19 03:50:21;;;;;;;10.30;5.28;;;23.60;96.70;;;;;;5086179;28;20048;-76
2023/09/19 03:52:50;;;;;;;13.25;4.80;;;23.60;96.70;;;;;;5065984;28;20044;-77
2023/09/19 03:55:18;;;;;;;11.27;5.32;;;23.60;96.70;;;;;;5087439;28;20051;-77
2023/09/19 03:57:50;;;;;;;12.20;4.72;;;23.60;96.70;;;;;;5071021;28;20040;-77
2023/09/19 04:00:21;;;;;;;12.63;4.82;;;23.60;96.70;;;;;;5085883;28;20056;-77
2023/09/19 04:02:51;;;;;;;11.15;4.78;;;23.60;96.70;;;;;;5084948;28;20040;-77
2023/09/19 04:05:19;;;;;;;9.52;4.28;;;23.60;96.70;;;;;;5084985;28;20573;-76
2023/09/19 04:07:47;;;;;;;9.27;4.60;;;23.60;96.70;;;;;;5084789;28;20112;-76
2023/09/19 04:10:15;;;;;;;8.30;4.53;;;23.60;96.70;;;;;;5084440;28;20047;-77
2023/09/19 04:12:53;;;;;;;13.27;5.32;;;23.60;96.70;;;;;;5086252;28;20073;-77
2023/09/19 04:15:23;;;;;;;12.13;5.22;;;23.60;96.70;;;;;;5086057;28;20105;-76
2023/09/19 04:17:53;;;;;;;13.57;4.63;;;23.60;96.70;;;;;;5084656;28;20749;-76
2023/09/19 04:20:25;;;;;;;14.00;5.35;;;23.70;96.70;;;;;;5068447;28;20136;-76
2023/09/19 04:22:53;;;;;;;11.85;4.38;;;23.70;96.70;;;;;;5085487;28;20055;-76
2023/09/19 04:25:21;;;;;;;8.90;4.22;;;23.70;96.70;;;;;;5069289;28;20142;-77
2023/09/19 04:27:49;;;;;;;11.68;4.18;;;23.80;96.70;;;;;;5069814;28;20044;-76
2023/09/19 04:30:19;;;;;;;14.57;5.50;;;23.80;96.70;;;;;;5104319;28;20465;-76
2023/09/19 04:32:50;;;;;;;13.43;4.80;;;23.80;96.70;;;;;;5103702;28;20516;-76
2023/09/19 04:35:19;;;;;;;12.82;4.13;;;23.80;96.70;;;;;;5103830;28;20067;-77
2023/09/19 04:37:48;;;;;;;12.70;4.85;;;23.70;96.70;;;;;;5103404;28;20070;-77
2023/09/19 04:40:19;;;;;;;14.07;4.57;;;23.60;96.70;;;;;;5103919;28;20047;-76
2023/09/19 04:42:56;;;;;;;16.10;5.32;;;23.50;96.70;;;;;;5092102;28;20074;-76
2023/09/19 04:45:27;;;;;;;15.00;5.03;;;23.50;96.70;;;;;;5103922;28;20055;-76
2023/09/19 04:47:56;;;;;;;12.20;4.45;;;23.60;96.70;;;;;;5095436;28;20050;-76
2023/09/19 04:50:27;;;;;;;12.02;4.30;;;23.60;96.70;;;;;;5104054;28;20122;-77
2023/09/19 04:52:56;;;;;;;16.23;4.72;;;23.70;96.70;;;;;;5104321;28;20124;-76
2023/09/19 04:55:24;;;;;;;14.88;4.40;;;23.80;96.70;;;;;;5086405;28;20054;-76
2023/09/19 04:57:55;;;;;;;13.95;4.53;;;23.80;96.70;;;;;;5069737;28;20070;-76
2023/09/19 05:00:27;;;;;;;11.85;4.18;;;23.80;96.70;;;;;;5088705;28;20077;-76
2023/09/19 05:02:56;;;;;;;14.98;4.43;;;23.80;96.70;;;;;;5071535;28;20150;-77
2023/09/19 05:05:25;;;;;;;14.73;4.50;;;23.90;96.70;;;;;;5107192;28;20043;-76
2023/09/19 05:07:55;;;;;;;13.82;4.60;;;23.80;96.70;;;;;;5071690;28;20190;-76
2023/09/19 05:10:24;;;;;;;16.10;4.75;;;23.80;96.70;;;;;;5107344;28;20035;-76
2023/09/19 05:12:53;;;;;;;15.38;4.70;;;23.80;96.70;;;;;;5107285;28;20048;-76
2023/09/19 05:15:21;;;;;;;9.07;3.85;;;23.80;96.70;;;;;;5107024;28;20114;-77
2023/09/19 05:17:54;;;;;;;18.95;4.88;;;23.90;96.70;;;;;;5088813;28;20623;-76
2023/09/19 05:20:33;;;;;;;10.38;4.38;;;23.90;96.70;;;;;;5107440;28;20442;-76
2023/09/19 05:23:08;;;;;;;15.23;4.10;;;23.90;96.70;;;;;;5106820;28;20043;-76
2023/09/19 05:25:38;;;;;;;14.60;4.60;;;23.80;96.70;;;;;;5080258;28;20083;-76
2023/09/19 05:28:07;;;;;;;13.73;4.50;;;23.90;96.70;;;;;;5071723;28;20073;-76
2023/09/19 05:30:38;;;;;;;14.40;4.05;;;23.90;96.70;;;;;;5088729;28;20134;-76
2023/09/19 05:33:08;;;;;;;18.40;5.00;;;23.90;96.70;;;;;;5105417;28;20058;-77
2023/09/19 05:35:39;;;;;;;16.83;4.85;;;23.90;96.70;;;;;;5105943;28;20035;-76
2023/09/19 05:38:12;;;;;;;14.38;4.70;;;24.00;96.70;;;;;;5083944;28;20076;-76
2023/09/19 05:40:42;;;;;;;20.42;4.72;;;24.00;96.70;;;;;;5084614;28;20059;-77
2023/09/19 05:43:10;;;;;;;20.80;6.22;;;24.00;96.70;;;;;;5086206;28;20044;-76
2023/09/19 05:45:40;;;;;;;19.67;5.40;;;24.00;96.70;;;;;;5084739;28;20502;-77
2023/09/19 05:48:13;;;;;;;22.00;6.18;;;23.90;96.70;;;;;;5085331;28;20509;-77
2023/09/19 05:50:41;;;;;;;19.00;5.20;;;23.80;96.70;;;;;;5085601;28;20070;-77
2023/09/19 05:53:14;;;;;;;18.60;6.35;;;23.70;96.70;;;;;;5068018;28;20047;-77
2023/09/19 05:55:43;;;;;;;17.10;5.95;;;23.80;96.70;;;;;;5067925;28;20052;-76
2023/09/19 05:58:14;;;;;;;17.98;6.03;;;23.90;96.70;;;;;;5078469;28;20052;-77
2023/09/19 06:00:44;;;;;;;19.70;5.53;;;23.90;96.70;;;;;;5083621;28;20040;-75
2023/09/19 06:03:14;;;;;;;15.68;5.18;;;23.90;96.70;;;;;;5087487;28;20035;-76
2023/09/19 06:05:43;;;;;;;17.20;5.45;;;24.00;96.70;;;;;;5085806;28;20051;-76
2023/09/19 06:08:11;;;;;;;15.98;5.28;;;24.00;96.70;;;;;;5085020;28;20177;-77
2023/09/19 06:10:40;;;;;;;13.73;5.70;;;24.00;96.70;;;;;;5084442;28;20052;-76
2023/09/19 06:13:10;;;;;;;19.88;6.00;;;24.10;96.70;;;;;;5084065;28;20450;-77
2023/09/19 06:15:40;;;;;;;12.00;4.13;;;24.00;96.70;;;;;;5085606;28;20050;-76
2023/09/19 06:18:19;;;;;;;13.90;4.68;;;24.10;96.70;;;;;;5083836;28;20097;-77
2023/09/19 06:20:50;;;;;;;14.73;4.57;;;24.10;96.70;;;;;;5083600;28;20055;-76
2023/09/19 06:23:21;;;;;;;14.68;5.65;;;24.10;96.70;;;;;;5083891;28;20081;-76
2023/09/19 06:25:49;;;;;;;15.68;5.05;;;24.10;96.70;;;;;;5085693;28;20052;-76
2023/09/19 06:28:23;;;;;;;13.38;5.28;;;24.20;96.70;;;;;;5085938;28;20048;-77
2023/09/19 06:30:52;;;;;;;14.85;5.20;;;24.30;96.70;;;;;;5079912;28;20052;-77
2023/09/19 06:33:21;;;;;;;19.83;6.45;;;24.30;96.70;;;;;;5064601;28;20066;-77
2023/09/19 06:35:52;;;;;;;17.58;6.65;;;24.50;96.70;;;;;;5083661;28;20442;-78
2023/09/19 06:38:21;;;;;;;22.00;7.90;;;24.60;96.70;;;;;;5062619;28;20052;-77
2023/09/19 06:40:49;;;;;;;19.42;6.85;;;24.60;96.70;;;;;;5063566;28;20189;-78
2023/09/19 06:43:18;;;;;;;15.77;6.45;;;24.70;96.70;;;;;;5063890;28;20048;-78
2023/09/19 06:45:46;;;;;;;15.95;6.78;;;24.80;96.70;;;;;;5065388;28;20052;-78
2023/09/19 06:48:15;;;;;;;22.50;6.57;;;24.90;96.70;;;;;;5064940;28;20052;-77
2023/09/19 06:50:45;;;;;;;18.42;6.72;;;25.00;96.70;;;;;;5053830;28;20047;-78
2023/09/19 06:53:13;;;;;;;18.25;6.10;;;25.00;96.70;;;;;;5062546;28;20036;-78
2023/09/19 06:55:43;;;;;;;17.00;6.25;;;24.90;96.70;;;;;;5063776;28;20048;-77
2023/09/19 06:58:12;;;;;;;22.70;5.95;;;24.90;96.70;;;;;;5043692;28;20045;-78
2023/09/19 07:00:40;;;;;;;15.82;4.63;;;24.90;96.70;;;;;;5064285;28;20051;-78
2023/09/19 07:03:11;;;;;;;16.83;4.30;;;24.90;96.70;;;;;;5062878;28;20040;-78
2023/09/19 07:05:41;;;;;;;15.43;4.47;;;24.90;96.70;;;;;;5063479;28;20055;-78
2023/09/19 07:08:12;;;;;;;15.40;4.38;;;25.00;96.70;;;;;;5064806;28;20572;-76
2023/09/19 07:10:48;;;;;;;13.30;3.80;;;25.00;96.70;;;;;;5047169;28;20049;-77
2023/09/19 07:13:17;;;;;;;14.38;3.88;;;25.00;96.70;;;;;;5062755;28;20560;-75
2023/09/19 07:15:46;;;;;;;17.05;3.88;;;25.10;96.70;;;;;;5063539;28;20040;-77
2023/09/19 07:18:16;;;;;;;14.27;4.55;;;25.10;96.70;;;;;;5055614;28;20510;-76
2023/09/19 07:20:51;;;;;;;18.13;4.75;;;25.20;96.70;;;;;;5062152;28;20044;-75
2023/09/19 07:23:23;;;;;;;11.70;3.97;;;25.30;96.70;;;;;;5045038;28;20048;-76
2023/09/19 07:25:52;;;;;;;14.75;4.13;;;25.30;96.70;;;;;;5063818;28;20052;-76
2023/09/19 07:28:20;;;;;;;19.50;5.53;;;25.30;96.70;;;;;;5063072;28;20055;-77
2023/09/19 07:30:48;;;;;;;13.88;4.55;;;25.40;96.70;;;;;;5063011;28;20036;-77
2023/09/19 07:33:16;;;;;;;12.43;3.38;;;25.40;96.70;;;;;;5063659;28;20470;-76
2023/09/19 07:35:46;;;;;;;15.32;4.20;;;25.40;96.70;;;;;;5062055;28;20328;-77
2023/09/19 07:38:15;;;;;;;14.35;3.72;;;25.40;96.70;;;;;;5094914;28;20052;-77
2023/09/19 07:40:44;;;;;;;21.40;4.72;;;25.50;96.70;;;;;;5096189;28;20477;-76
2023/09/19 07:43:13;;;;;;;12.70;4.05;;;25.60;96.70;;;;;;5104315;28;20536;-78
2023/09/19 07:45:41;;;;;;;18.77;5.18;;;25.70;96.70;;;;;;5068259;28;20043;-76
2023/09/19 07:48:14;;;;;;;21.20;4.68;;;25.80;96.70;;;;;;5104132;28;20071;-75
2023/09/19 07:50:46;;;;;;;12.27;4.07;;;25.80;96.70;;;;;;5097788;28;20122;-75
2023/09/19 07:53:16;;;;;;;12.73;3.63;;;25.90;96.70;;;;;;5073556;28;20052;-75
2023/09/19 07:55:47;;;;;;;19.63;3.95;;;26.00;96.70;;;;;;5069169;28;20512;-80
2023/09/19 07:58:16;;;;;;;12.60;3.42;;;26.10;96.70;;;;;;5085429;28;20040;-74
2023/09/19 08:00:45;;;;;;;40.08;5.60;;;26.20;96.70;;;;;;5103737;28;20039;-76
2023/09/19 08:03:14;;;;;;;11.45;3.22;;;26.20;96.70;;;;;;5085243;28;20511;-76
2023/09/19 08:05:45;;;;;;;11.10;3.63;;;26.40;96.70;;;;;;5069465;28;20482;-75
2023/09/19 08:08:14;;;;;;;11.45;4.10;;;26.50;96.70;;;;;;5104465;28;20043;-76
2023/09/19 08:10:48;;;;;;;10.68;3.40;;;26.50;96.70;;;;;;5086111;28;20043;-76
2023/09/19 08:13:18;;;;;;;11.00;3.67;;;26.60;96.70;;;;;;5085697;28;20067;-76
2023/09/19 08:15:46;;;;;;;13.60;4.45;;;26.60;96.70;;;;;;5075700;28;20189;-77
2023/09/19 08:18:15;;;;;;;12.38;3.33;;;26.70;96.70;;;;;;5102196;28;20043;-77
2023/09/19 08:20:48;;;;;;;16.98;4.40;;;26.80;96.70;;;;;;5101178;28;20085;-77
2023/09/19 08:23:19;;;;;;;12.50;3.20;;;26.90;96.70;;;;;;5085820;28;20472;-77
2023/09/19 08:25:50;;;;;;;14.27;3.55;;;27.10;96.70;;;;;;5085321;28;20428;-77
2023/09/19 08:28:23;;;;;;;10.88;3.58;;;27.20;96.70;;;;;;5102648;28;20470;-76
2023/09/19 08:30:54;;;;;;;20.08;4.22;;;27.20;96.70;;;;;;5086743;28;20047;-75
2023/09/19 08:33:23;;;;;;;9.63;3.60;;;27.10;96.70;;;;;;5107675;28;20059;-76
2023/09/19 08:35:51;;;;;;;12.30;3.33;;;26.90;96.70;;;;;;5089702;28;20051;-75
2023/09/19 08:38:20;;;;;;;11.55;3.60;;;26.90;96.70;;;;;;5072914;28;20044;-75
2023/09/19 08:40:49;;;;;;;13.65;4.20;;;27.10;96.70;;;;;;5089849;28;20111;-76
2023/09/19 08:43:21;;;;;;;11.93;3.75;;;27.30;96.70;;;;;;5072641;28;20048;-75
2023/09/19 08:45:50;;;;;;;13.30;3.70;;;27.20;96.70;;;;;;5107873;28;20134;-76
2023/09/19 08:48:24;;;;;;;8.90;3.17;;;27.10;96.70;;;;;;5071839;28;20970;-75
2023/09/19 08:51:01;;;;;;;10.02;3.30;;;27.10;96.70;;;;;;5089497;28;20039;-75
2023/09/19 08:53:41;;;;;;;8.82;3.22;;;27.20;96.70;;;;;;5089130;28;20052;-75
2023/09/19 08:56:13;;;;;;;8.15;3.42;;;27.30;96.70;;;;;;5107533;28;20039;-74
2023/09/19 08:58:46;;;;;;;14.00;3.30;;;27.30;96.70;;;;;;5106650;28;20493;-75
2023/09/19 09:01:17;;;;;;;7.40;2.50;;;27.30;96.70;;;;;;5089297;28;20055;-73
2023/09/19 09:03:48;;;;;;;9.65;3.05;;;27.30;96.70;;;;;;5071694;28;20108;-74
2023/09/19 09:06:18;;;;;;;10.95;2.85;;;27.40;96.70;;;;;;5083567;28;20725;-75
2023/09/19 09:08:47;;;;;;;9.63;3.33;;;27.50;96.70;;;;;;5089568;28;20046;-74
2023/09/19 09:11:18;;;;;;;10.63;3.28;;;27.40;96.70;;;;;;5072824;28;20401;-74
2023/09/19 09:13:46;;;;;;;6.07;2.83;;;27.50;96.70;;;;;;5090103;28;20047;-75
2023/09/19 09:16:18;;;;;;;7.32;3.00;;;27.60;96.70;;;;;;5120667;27;20035;-75
2023/09/19 09:18:52;;;;;;;8.40;2.60;;;27.80;96.70;;;;;;5107235;28;20048;-75
2023/09/19 09:21:21;;;;;;;8.05;2.97;;;28.00;96.70;;;;;;5089424;28;20039;-75
2023/09/19 09:23:51;;;;;;;6.03;2.75;;;28.00;96.70;;;;;;5073235;28;20101;-75
2023/09/19 09:26:42;;;;;;;8.60;3.08;;;27.90;96.70;;;;;;5085499;28;20613;-76
2023/09/19 09:29:11;;;;;;;8.32;2.78;;;27.80;96.70;;;;;;5087761;28;20584;-76
2023/09/19 09:31:42;;;;;;;9.40;2.85;;;27.80;96.70;;;;;;5108081;28;20167;-76
2023/09/19 09:34:13;;;;;;;10.25;3.13;;;27.70;96.70;;;;;;5101540;28;20509;-77
2023/09/19 09:36:42;;;;;;;11.95;3.17;;;27.50;96.70;;;;;;5106444;28;20063;-77
2023/09/19 09:39:24;;;;;;;8.82;3.00;;;27.60;96.70;;;;;;5102727;28;20116;-76
2023/09/19 09:41:54;;;;;;;8.40;2.80;;;27.80;96.70;;;;;;5083979;28;20043;-77
2023/09/19 09:44:22;;;;;;;7.75;2.83;;;28.00;96.70;;;;;;5085946;28;20143;-77
2023/09/19 09:49:35;;;;;;;7.22;2.88;;;28.30;96.70;;;;;;5079815;28;20048;-77
2023/09/19 09:52:16;;;;;;;10.20;3.08;;;28.40;96.70;;;;;;5108008;28;20043;-77
2023/09/19 09:55:00;;;;;;;7.25;2.70;;;28.40;96.70;;;;;;5106643;28;20047;-77
2023/09/19 09:57:30;;;;;;;5.90;3.00;;;28.60;96.70;;;;;;5096786;28;20062;-77
2023/09/19 10:02:56;;;;;;;7.22;3.40;;;28.50;96.70;;;;;;5034931;28;20052;-79
2023/09/19 10:08:09;;;;;;;11.55;3.63;;;28.70;96.70;;;;;;5043239;28;20060;-77
2023/09/19 10:11:05;;;;;;;9.57;2.90;;;28.70;96.70;;;;;;5026242;28;20080;-78
2023/09/19 10:13:31;;;;;;;10.35;2.80;;;28.90;96.70;;;;;;5026502;28;20063;-77
2023/09/19 10:16:05;;;;;;;10.48;2.80;;;28.90;96.70;;;;;;5021658;28;20041;-77
2023/09/19 10:18:38;;;;;;;7.88;2.72;;;28.90;96.70;;;;;;5026348;28;20053;-77
2023/09/19 10:21:09;;;;;;;9.10;3.15;;;29.00;96.70;;;;;;5026229;28;20092;-78
2023/09/19 10:23:42;;;;;;;8.07;2.63;;;29.10;96.70;;;;;;5043583;28;20052;-77
2023/09/19 10:26:11;;;;;;;8.00;2.40;;;29.10;96.70;;;;;;5042576;28;20053;-77
2023/09/19 10:28:41;;;;;;;6.10;2.00;;;29.30;96.70;;;;;;5042830;28;20049;-76
2023/09/19 10:31:14;;;;;;;7.68;2.38;;;29.30;96.70;;;;;;5043262;28;20059;-77
2023/09/19 10:33:43;;;;;;;7.40;2.30;;;29.10;96.70;;;;;;5026045;28;20049;-77
2023/09/19 10:36:12;;;;;;;8.57;2.95;;;29.10;96.70;;;;;;5042777;28;20045;-77
2023/09/19 10:38:43;;;;;;;8.82;3.00;;;29.30;96.70;;;;;;5032893;28;20510;-77
2023/09/19 10:41:14;;;;;;;7.30;2.72;;;29.40;96.70;;;;;;5084184;28;20059;-78
2023/09/19 10:43:46;;;;;;;7.45;2.40;;;29.40;96.70;;;;;;5066788;28;20040;-77
2023/09/19 10:46:14;;;;;;;5.57;2.35;;;29.40;96.70;;;;;;5059849;28;20140;-77
2023/09/19 10:48:48;;;;;;;7.15;2.50;;;29.30;96.70;;;;;;5066834;28;20048;-76
2023/09/19 10:51:23;;;;;;;8.85;2.47;;;29.40;96.70;;;;;;5084776;28;20044;-76
2023/09/19 10:53:53;;;;;;;7.57;2.38;;;29.20;96.70;;;;;;5083669;28;20497;-76
2023/09/19 10:56:27;;;;;;;7.60;2.40;;;29.30;96.70;;;;;;5085531;28;20047;-76
2023/09/19 10:59:09;;;;;;;6.97;2.40;;;29.30;96.70;;;;;;5067476;28;20094;-77
2023/09/19 11:01:47;;;;;;;4.90;2.25;;;29.50;96.70;;;;;;5086058;28;20113;-76
2023/09/19 11:04:27;;;;;;;10.00;3.08;;;29.60;96.70;;;;;;5084059;28;20047;-76
2023/09/19 11:07:11;;;;;;;6.35;2.25;;;29.60;96.70;;;;;;5084449;28;20052;-76
2023/09/19 11:09:48;;;;;;;7.97;2.75;;;29.60;96.70;;;;;;5083929;28;20480;-77
2023/09/19 11:12:50;;;;;;;8.25;2.38;;;29.60;96.70;;;;;;5077073;28;20579;-76
2023/09/19 11:15:55;;;;;;;7.45;2.55;;;29.70;96.70;;;;;;5083531;28;20478;-75
2023/09/19 11:18:53;;;;;;;8.82;3.15;;;29.70;96.70;;;;;;5080091;28;20044;-76
2023/09/19 11:21:52;;;;;;;7.93;2.70;;;29.60;96.70;;;;;;5075978;28;20052;-76
2023/09/19 11:24:36;;;;;;;5.85;2.60;;;29.90;96.70;;;;;;5085247;28;20048;-76
2023/09/19 11:27:17;;;;;;;8.18;2.55;;;29.80;96.70;;;;;;5115575;27;20047;-76
2023/09/19 11:29:46;;;;;;;7.03;2.28;;;29.90;96.70;;;;;;5066162;28;20047;-76
2023/09/19 11:32:17;;;;;;;7.88;2.30;;;30.10;96.70;;;;;;5083031;28;20680;-77
2023/09/19 11:34:50;;;;;;;7.80;2.60;;;30.20;96.70;;;;;;5080129;28;20036;-77
2023/09/19 11:38:05;;;;;;;6.72;2.20;;;29.90;96.70;;;;;;5083168;28;20048;-76
2023/09/19 11:40:33;;;;;;;7.32;2.45;;;30.10;96.70;;;;;;5099815;28;20493;-76
2023/09/19 11:43:31;;;;;;;9.82;2.40;;;29.70;96.70;;;;;;5066610;28;20142;-78
2023/09/19 11:46:04;;;;;;;6.60;2.58;;;29.80;96.70;;;;;;5082784;28;20040;-76
2023/09/19 11:48:35;;;;;;;8.98;2.58;;;30.10;96.70;;;;;;5066081;28;20113;-76
2023/09/19 11:51:19;;;;;;;10.77;2.40;;;30.30;96.70;;;;;;5083040;28;20493;-77
2023/09/19 11:53:48;;;;;;;7.30;2.30;;;30.30;96.70;;;;;;5083090;28;20145;-77
2023/09/19 11:56:17;;;;;;;7.90;2.80;;;29.90;96.70;;;;;;5082052;28;20139;-77
2023/09/19 11:58:46;;;;;;;7.97;2.67;;;30.20;96.70;;;;;;5075128;28;20296;-76
2023/09/19 12:01:19;;;;;;;10.55;2.78;;;30.40;96.70;;;;;;5084615;28;20543;-76
2023/09/19 12:03:52;;;;;;;6.53;2.28;;;30.20;96.70;;;;;;5082560;28;20509;-77
2023/09/19 12:06:22;;;;;;;9.13;2.78;;;30.30;96.70;;;;;;5080007;28;20125;-76
2023/09/19 12:08:53;;;;;;;8.45;2.60;;;30.20;96.70;;;;;;5089331;28;20039;-76
2023/09/19 12:11:23;;;;;;;6.90;2.10;;;30.30;96.70;;;;;;5083041;28;20048;-77
2023/09/19 12:13:53;;;;;;;5.35;2.20;;;30.30;96.70;;;;;;5083102;28;20036;-77
2023/09/19 12:16:21;;;;;;;8.57;2.42;;;30.40;96.70;;;;;;5083056;28;20044;-76
2023/09/19 12:18:50;;;;;;;9.43;2.60;;;30.30;96.70;;;;;;5082506;28;20067;-76
2023/09/19 12:21:27;;;;;;;5.32;2.05;;;30.50;96.70;;;;;;5084405;28;20094;-74
2023/09/19 12:24:06;;;;;;;6.80;2.03;;;30.50;96.70;;;;;;5084221;28;20052;-76
2023/09/19 12:26:43;;;;;;;7.13;2.30;;;30.60;96.70;;;;;;5083335;28;20123;-76
2023/09/19 12:29:13;;;;;;;5.95;2.08;;;30.80;96.70;;;;;;5084296;28;20063;-76
2023/09/19 12:31:50;;;;;;;5.63;1.92;;;30.90;96.70;;;;;;5066622;28;20144;-75
2023/09/19 12:34:29;;;;;;;8.30;2.63;;;30.70;96.70;;;;;;5065827;28;20058;-76
2023/09/19 12:37:12;;;;;;;6.40;1.77;;;30.60;96.70;;;;;;5083055;28;20052;-76
2023/09/19 12:39:41;;;;;;;4.25;1.83;;;30.70;96.70;;;;;;5082029;28;20105;-78
2023/09/19 12:42:10;;;;;;;9.55;2.20;;;30.60;96.70;;;;;;5081646;28;20437;-76
2023/09/19 12:44:43;;;;;;;9.68;2.95;;;30.60;96.70;;;;;;5083508;28;20549;-76
2023/09/19 12:47:15;;;;;;;7.45;2.10;;;30.70;96.70;;;;;;5065629;28;20055;-76
2023/09/19 12:50:18;;;;;;;5.88;2.28;;;30.70;96.70;;;;;;5082267;28;20113;-75
2023/09/19 12:52:49;;;;;;;5.70;2.33;;;30.70;96.70;;;;;;5038854;28;20505;-77
2023/09/19 12:55:25;;;;;;;6.10;2.00;;;30.70;96.70;;;;;;5083588;28;20044;-77
2023/09/19 12:58:07;;;;;;;6.85;2.17;;;30.70;96.70;;;;;;5065561;28;20044;-77
2023/09/19 13:00:36;;;;;;;6.45;1.98;;;30.50;96.70;;;;;;5076250;28;20052;-77
2023/09/19 13:03:16;;;;;;;8.10;1.95;;;30.50;96.70;;;;;;5079564;28;20082;-77
2023/09/19 13:05:48;;;;;;;8.88;2.38;;;30.50;96.70;;;;;;5066080;28;20051;-77
2023/09/19 13:08:26;;;;;;;8.10;2.20;;;30.30;96.70;;;;;;5084187;28;20052;-77
2023/09/19 13:11:10;;;;;;;7.65;2.35;;;30.30;96.70;;;;;;5082164;28;20411;-78
2023/09/19 13:13:40;;;;;;;4.88;2.00;;;30.00;96.70;;;;;;5065620;28;20048;-78